PWSweather.com
Personal Weather Stations
Station Observations
J24K28P63
Vysocina, PocatkyCZ 39464

VysocinaPocatkyCZ 39464

Lat: 49.2594238, Lon: 15.2331769

Elevation: 2011

Station Type: Vantage Pro2+

http://meteo-jirkalina.com

High Low Average
Temperature 62.0°F16.7°C 51.8°F11.0°C 57.7°F14.3°C
Dew Point 59.8°F15.4°C 51.6°F10.9°C 56.0°F13.3°C
Winds 8.4 mph 13.5 kmh Calm Calm 3.0 mph SW4.8 kmh SW
Wind Gusts 20.0 mph32.2 kmh -- 5.0 mph8.0 kmh
Humidity 100% 72% 94%
Pressure 29.90 in1012.5 mb 29.64 in1003.7 mb -
Precipitation 0.89 in22.6 mm - -
Hour Temp Dew Point Humidity Winds Wind Gusts Pressure Precip Precip Rate Daily Precip Total
12:00 AM 59.8°F15.4°C 59.8°F15.4°C 100% Calm Calm -- 29.66 in1004.4 mb - 0.00 in0.0 mm 0.01 in0.3 mm
12:30 AM 59.8°F15.4°C 59.8°F15.4°C 100% 2.5 mph NE4.0 kmh NE 4.0 mph6.4 kmh 29.66 in1004.4 mb - 0.01 in0.3 mm 0.02 in0.5 mm
01:00 AM 59.0°F15.0°C 59.0°F15.0°C 100% 3.6 mph ENE5.8 kmh ENE 5.0 mph8.0 kmh 29.66 in1004.4 mb - 0.19 in4.8 mm 0.20 in5.1 mm
01:30 AM 58.7°F14.8°C 58.7°F14.8°C 100% 1.6 mph ENE2.6 kmh ENE 2.0 mph3.2 kmh 29.65 in1004.1 mb - 0.12 in3.0 mm 0.32 in8.1 mm
02:00 AM 58.6°F14.8°C 58.6°F14.8°C 100% Calm Calm 1.0 mph1.6 kmh 29.65 in1004.1 mb - 0.04 in1.0 mm 0.36 in9.1 mm
02:30 AM 58.6°F14.8°C 58.6°F14.8°C 100% 1.5 mph ENE2.4 kmh ENE 4.0 mph6.4 kmh 29.65 in1004.1 mb - 0.03 in0.8 mm 0.39 in9.9 mm
03:00 AM 58.6°F14.8°C 58.6°F14.8°C 100% Calm Calm -- 29.65 in1004.1 mb - 0.04 in1.0 mm 0.43 in10.9 mm
03:30 AM 58.3°F14.6°C 58.3°F14.6°C 100% 0.1 mph ENE0.2 kmh ENE -- 29.65 in1004.1 mb - 0.04 in1.0 mm 0.47 in11.9 mm
04:00 AM 58.1°F14.5°C 58.1°F14.5°C 100% 1.1 mph ENE1.8 kmh ENE 2.0 mph3.2 kmh 29.65 in1004.1 mb - 0.03 in0.8 mm 0.50 in12.7 mm
04:30 AM 57.4°F14.1°C 57.4°F14.1°C 100% 2.3 mph NE3.7 kmh NE 6.0 mph9.7 kmh 29.65 in1004.1 mb - 0.05 in1.3 mm 0.54 in13.7 mm
05:00 AM 56.9°F13.8°C 56.3°F13.5°C 98% 2.2 mph NE3.5 kmh NE 3.0 mph4.8 kmh 29.65 in1004.1 mb - 0.04 in1.0 mm 0.58 in14.7 mm
05:10 AM 58.4°F14.7°C 55.5°F13.1°C 90% 3.0 mph WNW4.8 kmh WNW 8.0 mph12.9 kmh 29.77 in1008.1 mb - 0.01 in0.3 mm 0.01 in0.3 mm
05:20 AM 58.1°F14.5°C 55.8°F13.2°C 92% 5.0 mph W8.0 kmh W 7.0 mph11.3 kmh 29.77 in1008.1 mb - 0.00 in0.0 mm 0.01 in0.3 mm
05:30 AM 56.5°F13.6°C 56.5°F13.6°C 100% 1.0 mph NE1.6 kmh NE 1.0 mph1.6 kmh 29.64 in1003.7 mb - 0.03 in0.8 mm 0.62 in15.7 mm
05:40 AM 57.3°F14.1°C 55.6°F13.1°C 94% 7.0 mph WNW11.3 kmh WNW 9.0 mph14.5 kmh 29.77 in1008.1 mb - 0.02 in0.5 mm 0.04 in1.0 mm
05:50 AM 57.1°F13.9°C 55.7°F13.2°C 95% 5.0 mph WNW8.0 kmh WNW 8.0 mph12.9 kmh 29.77 in1008.1 mb - 0.01 in0.3 mm 0.05 in1.3 mm
06:00 AM 57.1°F13.9°C 55.7°F13.2°C 95% 3.0 mph WNW4.8 kmh WNW 5.0 mph8.0 kmh 29.77 in1008.1 mb - 0.01 in0.3 mm 0.06 in1.5 mm
06:10 AM 57.0°F13.9°C 55.9°F13.3°C 96% 6.0 mph WNW9.7 kmh WNW 9.0 mph14.5 kmh 29.77 in1008.1 mb - 0.00 in0.0 mm 0.06 in1.5 mm
06:20 AM 56.9°F13.8°C 55.8°F13.2°C 96% 6.0 mph W9.7 kmh W 10.0 mph16.1 kmh 29.77 in1008.1 mb - 0.00 in0.0 mm 0.06 in1.5 mm
06:30 AM 56.9°F13.8°C 56.9°F13.8°C 100% Calm Calm -- 29.65 in1004.1 mb - 0.02 in0.5 mm 0.64 in16.3 mm
06:40 AM 57.0°F13.9°C 56.1°F13.4°C 97% 5.0 mph WNW8.0 kmh WNW 7.0 mph11.3 kmh 29.77 in1008.1 mb - 0.00 in0.0 mm 0.06 in1.5 mm
06:50 AM 57.0°F13.9°C 56.2°F13.4°C 97% 5.0 mph W8.0 kmh W 7.0 mph11.3 kmh 29.77 in1008.1 mb - 0.01 in0.3 mm 0.07 in1.8 mm
07:00 AM 56.9°F13.8°C 56.1°F13.4°C 97% 5.0 mph W8.0 kmh W 7.0 mph11.3 kmh 29.77 in1008.1 mb - 0.00 in0.0 mm 0.07 in1.8 mm
07:10 AM 57.1°F13.9°C 56.3°F13.5°C 97% 2.0 mph W3.2 kmh W 6.0 mph9.7 kmh 29.78 in1008.5 mb - 0.00 in0.0 mm 0.07 in1.8 mm
07:20 AM 57.2°F14.0°C 56.7°F13.7°C 98% 5.0 mph W8.0 kmh W 6.0 mph9.7 kmh 29.78 in1008.5 mb - 0.01 in0.3 mm 0.08 in2.0 mm
07:30 AM 58.0°F14.4°C 58.0°F14.4°C 100% 2.0 mph NE3.2 kmh NE 3.0 mph4.8 kmh 29.66 in1004.4 mb - 0.02 in0.5 mm 0.67 in17.0 mm
07:40 AM 57.8°F14.3°C 57.2°F14.0°C 98% 5.0 mph WNW8.0 kmh WNW 7.0 mph11.3 kmh 29.78 in1008.5 mb - 0.01 in0.3 mm 0.09 in2.3 mm
07:50 AM 57.6°F14.2°C 57.1°F13.9°C 98% 6.0 mph WNW9.7 kmh WNW 9.0 mph14.5 kmh 29.79 in1008.8 mb - 0.01 in0.3 mm 0.10 in2.5 mm
08:00 AM 57.4°F14.1°C 56.6°F13.7°C 97% 6.0 mph NW9.7 kmh NW 8.0 mph12.9 kmh 29.79 in1008.8 mb - 0.00 in0.0 mm 0.10 in2.5 mm
08:10 AM 57.5°F14.2°C 56.6°F13.7°C 97% 6.0 mph WNW9.7 kmh WNW 9.0 mph14.5 kmh 29.79 in1008.8 mb - 0.00 in0.0 mm 0.10 in2.5 mm
08:20 AM 57.5°F14.2°C 56.7°F13.7°C 97% 5.0 mph NW8.0 kmh NW 8.0 mph12.9 kmh 29.79 in1008.8 mb - 0.00 in0.0 mm 0.10 in2.5 mm
08:30 AM 56.5°F13.6°C 56.5°F13.6°C 100% Calm Calm -- 29.67 in1004.7 mb - 0.05 in1.3 mm 0.75 in19.1 mm
08:40 AM 57.4°F14.1°C 56.6°F13.7°C 97% 7.0 mph NW11.3 kmh NW 12.0 mph19.3 kmh 29.80 in1009.1 mb - 0.00 in0.0 mm 0.10 in2.5 mm
08:50 AM 57.3°F14.1°C 56.5°F13.6°C 97% 5.0 mph NW8.0 kmh NW 8.0 mph12.9 kmh 29.80 in1009.1 mb - 0.01 in0.3 mm 0.11 in2.8 mm
09:00 AM 57.7°F14.3°C 56.9°F13.8°C 97% 5.0 mph NW8.0 kmh NW 7.0 mph11.3 kmh 29.80 in1009.1 mb - 0.01 in0.3 mm 0.11 in2.8 mm
09:10 AM 57.7°F14.3°C 56.9°F13.8°C 97% 8.0 mph NW12.9 kmh NW 12.0 mph19.3 kmh 29.80 in1009.1 mb - 0.00 in0.0 mm 0.11 in2.8 mm
09:20 AM 57.3°F14.1°C 56.5°F13.6°C 97% 6.0 mph NW9.7 kmh NW 10.0 mph16.1 kmh 29.80 in1009.1 mb - 0.00 in0.0 mm 0.11 in2.8 mm
09:30 AM 56.2°F13.4°C 56.2°F13.4°C 100% 3.6 mph NW5.8 kmh NW 9.0 mph14.5 kmh 29.68 in1005.1 mb - 0.01 in0.3 mm 0.80 in20.3 mm
09:40 AM 57.4°F14.1°C 56.6°F13.7°C 97% 5.0 mph NW8.0 kmh NW 9.0 mph14.5 kmh 29.81 in1009.5 mb - 0.00 in0.0 mm 0.11 in2.8 mm
09:50 AM 57.4°F14.1°C 56.6°F13.7°C 97% 5.0 mph WNW8.0 kmh WNW 7.0 mph11.3 kmh 29.81 in1009.5 mb - 0.00 in0.0 mm 0.11 in2.8 mm
10:00 AM 56.3°F13.5°C 56.3°F13.5°C 100% 3.5 mph WNW5.6 kmh WNW 3.0 mph4.8 kmh 29.69 in1005.4 mb - 0.01 in0.3 mm 0.81 in20.6 mm
10:10 AM 57.6°F14.2°C 56.7°F13.7°C 97% 5.0 mph NW8.0 kmh NW 12.0 mph19.3 kmh 29.81 in1009.5 mb - 0.00 in0.0 mm 0.11 in2.8 mm
10:20 AM 57.9°F14.4°C 57.0°F13.9°C 97% 8.0 mph NW12.9 kmh NW 10.0 mph16.1 kmh 29.81 in1009.5 mb - 0.00 in0.0 mm 0.11 in2.8 mm
10:30 AM 56.5°F13.6°C 56.5°F13.6°C 100% 3.4 mph N5.5 kmh N 5.0 mph8.0 kmh 29.69 in1005.4 mb - 0.01 in0.3 mm 0.82 in20.8 mm
11:00 AM 56.5°F13.6°C 56.5°F13.6°C 100% 4.4 mph N7.1 kmh N 5.0 mph8.0 kmh 29.70 in1005.8 mb - 0.00 in0.0 mm 0.82 in20.8 mm
11:30 AM 56.4°F13.6°C 56.4°F13.6°C 100% 1.7 mph N2.7 kmh N 3.0 mph4.8 kmh 29.70 in1005.8 mb - 0.00 in0.0 mm 0.82 in20.8 mm
12:00 PM 56.4°F13.6°C 56.4°F13.6°C 100% 0.3 mph NNE0.5 kmh NNE -- 29.70 in1005.8 mb - 0.00 in0.0 mm 0.82 in20.8 mm
12:30 PM 56.2°F13.4°C 56.2°F13.4°C 100% 1.0 mph NE1.6 kmh NE 4.0 mph6.4 kmh 29.71 in1006.1 mb - 0.00 in0.0 mm 0.82 in20.8 mm
01:00 PM 56.2°F13.4°C 56.2°F13.4°C 100% 2.0 mph N3.2 kmh N 4.0 mph6.4 kmh 29.71 in1006.1 mb - 0.00 in0.0 mm 0.82 in20.8 mm
01:10 PM 57.8°F14.3°C 57.0°F13.9°C 97% 5.0 mph NW8.0 kmh NW 9.0 mph14.5 kmh 29.82 in1009.8 mb - 0.00 in0.0 mm 0.12 in3.0 mm
01:20 PM 58.1°F14.5°C 57.2°F14.0°C 97% 3.0 mph NW4.8 kmh NW 5.0 mph8.0 kmh 29.82 in1009.8 mb - 0.00 in0.0 mm 0.12 in3.0 mm
01:30 PM 56.3°F13.5°C 56.3°F13.5°C 100% 3.8 mph NNE6.1 kmh NNE 6.0 mph9.7 kmh 29.71 in1006.1 mb - 0.00 in0.0 mm 0.82 in20.8 mm
01:40 PM 58.7°F14.8°C 57.6°F14.2°C 96% Calm Calm 2.0 mph3.2 kmh 29.82 in1009.8 mb - 0.00 in0.0 mm 0.12 in3.0 mm
01:50 PM 58.4°F14.7°C 57.3°F14.1°C 96% 1.0 mph NW1.6 kmh NW 3.0 mph4.8 kmh 29.82 in1009.8 mb - 0.00 in0.0 mm 0.12 in3.0 mm
02:00 PM 56.7°F13.7°C 56.7°F13.7°C 100% 3.8 mph NNE6.1 kmh NNE 6.0 mph9.7 kmh 29.71 in1006.1 mb - 0.00 in0.0 mm 0.82 in20.8 mm
02:10 PM 58.4°F14.7°C 57.0°F13.9°C 95% 1.0 mph NNW1.6 kmh NNW 1.0 mph1.6 kmh 29.82 in1009.8 mb - 0.00 in0.0 mm 0.12 in3.0 mm
02:20 PM 58.4°F14.7°C 57.0°F13.9°C 95% 2.0 mph NE3.2 kmh NE 5.0 mph8.0 kmh 29.82 in1009.8 mb - 0.00 in0.0 mm 0.12 in3.0 mm
02:30 PM 56.9°F13.8°C 56.9°F13.8°C 100% 3.3 mph NNE5.3 kmh NNE 8.0 mph12.9 kmh 29.71 in1006.1 mb - 0.00 in0.0 mm 0.82 in20.8 mm
02:40 PM 58.5°F14.7°C 57.1°F13.9°C 95% Calm Calm -- 29.83 in1010.2 mb - 0.00 in0.0 mm 0.13 in3.3 mm
02:50 PM 59.1°F15.1°C 57.7°F14.3°C 95% Calm Calm 2.0 mph3.2 kmh 29.83 in1010.2 mb - 0.00 in0.0 mm 0.13 in3.3 mm
03:00 PM 57.3°F14.1°C 57.3°F14.1°C 100% 0.2 mph NW0.3 kmh NW 1.0 mph1.6 kmh 29.72 in1006.4 mb - 0.00 in0.0 mm 0.82 in20.8 mm
03:10 PM 59.5°F15.3°C 58.1°F14.5°C 95% 1.0 mph N1.6 kmh N 5.0 mph8.0 kmh 29.83 in1010.2 mb - 0.00 in0.0 mm 0.13 in3.3 mm
03:20 PM 59.6°F15.3°C 58.2°F14.6°C 95% 1.0 mph N1.6 kmh N 2.0 mph3.2 kmh 29.83 in1010.2 mb - 0.00 in0.0 mm 0.13 in3.3 mm
03:30 PM 56.9°F13.8°C 56.4°F13.6°C 98% 0.3 mph NW0.5 kmh NW -- 29.72 in1006.4 mb - 0.00 in0.0 mm 0.82 in20.8 mm
03:40 PM 60.3°F15.7°C 58.6°F14.8°C 94% 2.0 mph N3.2 kmh N 5.0 mph8.0 kmh 29.83 in1010.2 mb - 0.00 in0.0 mm 0.13 in3.3 mm
03:50 PM 59.9°F15.5°C 57.9°F14.4°C 93% 1.0 mph N1.6 kmh N 3.0 mph4.8 kmh 29.84 in1010.5 mb - 0.00 in0.0 mm 0.13 in3.3 mm
04:00 PM 59.6°F15.3°C 57.5°F14.2°C 93% Calm Calm 3.0 mph4.8 kmh 29.84 in1010.5 mb - 0.00 in0.0 mm 0.13 in3.3 mm
04:10 PM 59.7°F15.4°C 57.6°F14.2°C 93% 1.0 mph NNE1.6 kmh NNE 3.0 mph4.8 kmh 29.84 in1010.5 mb - 0.00 in0.0 mm 0.13 in3.3 mm
04:20 PM 59.8°F15.4°C 57.8°F14.3°C 93% Calm Calm 3.0 mph4.8 kmh 29.84 in1010.5 mb - 0.00 in0.0 mm 0.13 in3.3 mm
04:30 PM 56.5°F13.6°C 56.2°F13.4°C 99% 1.1 mph N1.8 kmh N 2.0 mph3.2 kmh 29.73 in1006.8 mb - 0.01 in0.3 mm 0.83 in21.1 mm
04:40 PM 60.1°F15.6°C 57.1°F13.9°C 90% 1.0 mph NNW1.6 kmh NNW 3.0 mph4.8 kmh 29.84 in1010.5 mb - 0.00 in0.0 mm 0.13 in3.3 mm
04:50 PM 60.4°F15.8°C 57.1°F13.9°C 89% Calm Calm 2.0 mph3.2 kmh 29.84 in1010.5 mb - 0.00 in0.0 mm 0.13 in3.3 mm
05:00 PM 56.2°F13.4°C 55.9°F13.3°C 99% Calm Calm -- 29.74 in1007.1 mb - 0.01 in0.3 mm 0.84 in21.3 mm
05:10 PM 60.6°F15.9°C 55.1°F12.8°C 82% 7.0 mph NNW11.3 kmh NNW 10.0 mph16.1 kmh 29.85 in1010.8 mb - 0.00 in0.0 mm 0.13 in3.3 mm
05:20 PM 60.8°F16.0°C 54.6°F12.6°C 80% 5.0 mph NNW8.0 kmh NNW 9.0 mph14.5 kmh 29.85 in1010.8 mb - 0.00 in0.0 mm 0.13 in3.3 mm
05:30 PM 55.4°F13.0°C 55.1°F12.8°C 99% 1.9 mph NNW3.1 kmh NNW 4.0 mph6.4 kmh 29.75 in1007.5 mb - 0.00 in0.0 mm 0.84 in21.3 mm
05:40 PM 61.8°F16.6°C 54.2°F12.3°C 76% 5.0 mph NW8.0 kmh NW 6.0 mph9.7 kmh 29.86 in1011.2 mb - 0.00 in0.0 mm 0.13 in3.3 mm
05:50 PM 62.0°F16.7°C 54.0°F12.2°C 75% 3.0 mph NW4.8 kmh NW 5.0 mph8.0 kmh 29.86 in1011.2 mb - 0.00 in0.0 mm 0.13 in3.3 mm
06:00 PM 61.7°F16.5°C 52.6°F11.4°C 72% 5.0 mph NW8.0 kmh NW 9.0 mph14.5 kmh 29.87 in1011.5 mb - 0.00 in0.0 mm 0.13 in3.3 mm
06:10 PM 61.7°F16.5°C 52.6°F11.4°C 72% 3.0 mph NW4.8 kmh NW 8.0 mph12.9 kmh 29.87 in1011.5 mb - 0.00 in0.0 mm 0.13 in3.3 mm
06:20 PM 61.6°F16.4°C 52.5°F11.4°C 72% 6.0 mph NNW9.7 kmh NNW 12.0 mph19.3 kmh 29.87 in1011.5 mb - 0.00 in0.0 mm 0.13 in3.3 mm
06:30 PM 53.8°F12.1°C 53.5°F11.9°C 99% 4.6 mph N7.4 kmh N 5.0 mph8.0 kmh 29.78 in1008.5 mb - 0.01 in0.3 mm 0.86 in21.8 mm
06:40 PM 61.5°F16.4°C 52.4°F11.3°C 72% 2.0 mph NW3.2 kmh NW 3.0 mph4.8 kmh 29.88 in1011.9 mb - 0.00 in0.0 mm 0.13 in3.3 mm
06:50 PM 61.4°F16.3°C 52.7°F11.5°C 73% 2.0 mph NW3.2 kmh NW 3.0 mph4.8 kmh 29.88 in1011.9 mb - 0.00 in0.0 mm 0.13 in3.3 mm
07:00 PM 61.1°F16.2°C 53.1°F11.7°C 75% 5.0 mph NW8.0 kmh NW 5.0 mph8.0 kmh 29.89 in1012.2 mb - 0.00 in0.0 mm 0.13 in3.3 mm
07:10 PM 60.9°F16.1°C 51.8°F11.0°C 72% 3.0 mph NW4.8 kmh NW 6.0 mph9.7 kmh 29.89 in1012.2 mb - 0.00 in0.0 mm 0.13 in3.3 mm
07:20 PM 60.6°F15.9°C 52.3°F11.3°C 74% 3.0 mph NW4.8 kmh NW 6.0 mph9.7 kmh 29.89 in1012.2 mb - 0.00 in0.0 mm 0.13 in3.3 mm
07:30 PM 53.3°F11.8°C 53.3°F11.8°C 100% 3.2 mph NE5.1 kmh NE 6.0 mph9.7 kmh 29.80 in1009.1 mb - 0.01 in0.3 mm 0.88 in22.4 mm
07:40 PM 60.0°F15.6°C 52.1°F11.2°C 75% 5.0 mph NW8.0 kmh NW 7.0 mph11.3 kmh 29.90 in1012.5 mb - 0.00 in0.0 mm 0.13 in3.3 mm
08:00 PM 52.8°F11.6°C 52.8°F11.6°C 100% 7.0 mph N11.3 kmh N 13.0 mph20.9 kmh 29.80 in1009.1 mb - 0.00 in0.0 mm 0.88 in22.4 mm
08:30 PM 52.0°F11.1°C 52.0°F11.1°C 100% 8.4 mph N13.5 kmh N 20.0 mph32.2 kmh 29.82 in1009.8 mb - 0.01 in0.3 mm 0.89 in22.6 mm
09:00 PM 51.9°F11.1°C 51.9°F11.1°C 100% 5.8 mph N9.3 kmh N 8.0 mph12.9 kmh 29.84 in1010.5 mb - 0.00 in0.0 mm 0.89 in22.6 mm
09:30 PM 51.8°F11.0°C 51.8°F11.0°C 100% 3.9 mph N6.3 kmh N 6.0 mph9.7 kmh 29.84 in1010.5 mb - 0.00 in0.0 mm 0.89 in22.6 mm
10:00 PM 51.9°F11.1°C 51.6°F10.9°C 99% 4.5 mph N7.2 kmh N 5.0 mph8.0 kmh 29.85 in1010.8 mb - 0.00 in0.0 mm 0.89 in22.6 mm
10:30 PM 52.0°F11.1°C 51.8°F11.0°C 99% 3.6 mph NNW5.8 kmh NNW 7.0 mph11.3 kmh 29.86 in1011.2 mb - 0.00 in0.0 mm 0.89 in22.6 mm
11:00 PM 52.0°F11.1°C 51.7°F10.9°C 99% 3.6 mph NE5.8 kmh NE 5.0 mph8.0 kmh 29.87 in1011.5 mb - 0.00 in0.0 mm 0.90 in22.9 mm
11:30 PM 51.9°F11.1°C 51.6°F10.9°C 99% Calm Calm 3.0 mph4.8 kmh 29.87 in1011.5 mb - 0.00 in0.0 mm 0.90 in22.9 mm